Hickman, KY (42050)

9:23 AM CDT on July 23, 2014 (GMT -0500)
Brooks Chapel (KKYFULTO3) Elev 371 ft | 36.51 °N, 88.97 °W | Change Station

Current weather conditions updated 3 minutes ago

Clear
Clear
79.9 °F
Feels Like 84 °F
N
0.0
Wind Variable Wind from NNW

Today is forecast to be Cooler than yesterday. Mix of sun and clouds.

Today
High -- | Low -- °F
--% Chance of Precip.
Yesterday
High -- | Low -- °F
Precip. -- in
5:55 AM 8:10 PM
Waning Crescent, 10% visible
Pressure 30.06 in
Visibility 10.0 miles
Clouds Clear
Heat Index 84 °F
Dew Point 73 °F
Humidity 79%
Rainfall 0.00 in
Snow Depth Not available.
UV 5 out of 12
Pollen 6.30 out of 12
Air Quality Not available.
Flu Activity Not available.
METAR KUCY 231415Z AUTO 00000KT 10SM CLR 27/22 A3006 RMK

More Conditions Fewer Conditions

Pressure 30.06 in
Visibility 10.0 miles
Clouds Clear
Heat Index 84 °F
Dew Point 73 °F
Humidity 79%
Rainfall 0.00 in
Snow Depth Not available.
UV 5 out of 12
Pollen 6.30 out of 12
Air Quality Not available.
Flu Activity Not available.
METAR KUCY 231415Z AUTO 00000KT 10SM CLR 27/22 A3006 RMK

More Conditions Fewer Conditions

10-Day Weather Forecast

Almanac

Astronomy

Jul. 23, 2014 Rise Set
Actual Time 5:55 AM CDT 8:10 PM CDT
Civil Twilight 5:26 AM CDT 8:39 PM CDT
Nautical Twilight 4:50 AM CDT 9:15 PM CDT
Astronomical Twilight 4:11 AM CDT 9:53 PM CDT
Moon 3:14 AM CDT 5:39 PM CDT
Length of Visible Light 15h 12m
Length of Day
14h 14m
Tomorrow will be 1m 30s shorter.
Waning Crescent, 10% of the Moon is Illuminated
Today
Waning Crescent
Jul 26
New
Aug 3
First Quarter
Aug 10
Full
Aug 17
Last Quarter

Today's Extremes

State Highs State Lows

Community

WunderPhotos

Upload Photos

1,736,603 photos uploaded!

Nearby

Snow Depth

Station Depth Elevation
No new snow has been reported.

Earthquake Activity

City Distance Mag. Time & Date
No recent earthquake activity has been reported nearby.
Minimum magnitude displayed is 2.5.

Coastal Water Temperatures

Place Temperature
No Stations Reporting

Nearby Weather Stations

Station Location Temp. Heat Index Dew Point Humidity Wind Precip. Elev Updated Type
Brooks Chapel, Fulton, KY 79.9 °F 84 °F 73 °F 79% NNW  at  0.0 mph - / hr 371 ft 9:19 AM CDT Normal
Union City, TN 81.1 °F 86 °F 74 °F 78% WSW  at  1.0 mph 0.00 in / hr 360 ft 9:20 AM CDT Normal
EAST REELFOOT AVE, Union City, TN 82.3 °F 90 °F 76 °F 81% South  at  0.0 mph 0.00 in / hr 348 ft 9:22 AM CDT Normal
MRM Ag Services- Hwy 80, East Prairie, MO 82.1 °F 89 °F 76 °F 81% South  at  0.0 mph 0.00 in / hr 305 ft 10:19 AM EDT Normal
Eastern Hickman County, Wingo, KY 81.0 °F 87 °F 75 °F 82% West  at  1.7 mph - / hr 466 ft 9:16 AM CDT Normal
Beautiful Downtown Gardner, Martin, TN 82.4 °F 94 °F 80 °F 93% North  at  1.6 mph 0.00 in / hr 384 ft 9:23 AM CDT Rapid Fire

Show More Stations Show Fewer Stations